createdAt,value
2018-12-10T00:01:15.614Z,23.80
2018-12-10T00:03:49.882Z,23.80
2018-12-10T00:06:24.162Z,23.80
2018-12-10T00:08:58.627Z,23.50
2018-12-10T00:11:33.082Z,23.40
2018-12-10T00:14:07.483Z,22.50
2018-12-10T00:16:41.947Z,22.50
2018-12-10T00:19:16.308Z,22.60
2018-12-10T00:21:50.618Z,22.00
2018-12-10T00:24:25.210Z,22.60
2018-12-10T00:26:59.749Z,22.50
2018-12-10T00:29:34.196Z,22.70
2018-12-10T00:32:08.456Z,23.60
2018-12-10T00:34:42.948Z,24.10
2018-12-10T00:37:17.339Z,24.50
2018-12-10T00:39:52.189Z,25.20
2018-12-10T00:42:26.684Z,25.30
2018-12-10T00:45:01.070Z,24.30
2018-12-10T00:47:35.540Z,24.30
2018-12-10T00:50:10.057Z,24.80
2018-12-10T00:52:44.350Z,24.30
2018-12-10T00:55:18.636Z,23.90
2018-12-10T00:57:53.066Z,24.10
2018-12-10T01:00:27.463Z,22.90
2018-12-10T01:03:01.684Z,23.70
2018-12-10T01:05:36.134Z,23.80
2018-12-10T01:08:10.950Z,24.00
2018-12-10T01:10:45.422Z,23.40
2018-12-10T01:13:21.038Z,24.30
2018-12-10T01:15:55.279Z,23.50
2018-12-10T01:18:31.789Z,24.20
2018-12-10T01:21:06.326Z,24.30
2018-12-10T01:23:40.624Z,24.30
2018-12-10T01:26:14.779Z,23.50
2018-12-10T01:28:49.135Z,24.60
2018-12-10T01:31:23.619Z,25.20
2018-12-10T01:33:57.964Z,26.00
2018-12-10T01:36:32.375Z,26.70
2018-12-10T01:39:06.602Z,27.00
2018-12-10T01:41:43.257Z,27.30
2018-12-10T01:44:17.567Z,26.70
2018-12-10T01:46:52.134Z,27.20
2018-12-10T01:49:26.371Z,27.30
2018-12-10T01:52:01.891Z,26.70
2018-12-10T01:54:36.194Z,27.00
2018-12-10T01:57:10.599Z,25.90
2018-12-10T01:59:45.445Z,26.50
2018-12-10T02:02:19.935Z,26.50
2018-12-10T02:04:54.347Z,26.30
2018-12-10T02:07:28.730Z,26.80
2018-12-10T02:10:03.059Z,26.80
2018-12-10T02:12:37.307Z,27.50
2018-12-10T02:15:11.918Z,27.40
2018-12-10T02:17:46.234Z,28.10
2018-12-10T02:20:20.557Z,28.60
2018-12-10T02:22:54.755Z,29.30
2018-12-10T02:25:29.214Z,29.30
2018-12-10T02:28:03.735Z,29.20
2018-12-10T02:30:38.074Z,30.30
2018-12-10T02:33:12.530Z,30.50
2018-12-10T02:35:46.812Z,30.60
2018-12-10T02:38:21.377Z,30.00
2018-12-10T02:40:55.655Z,31.60
2018-12-10T02:43:30.080Z,30.90
2018-12-10T02:46:04.380Z,29.40
2018-12-10T02:48:38.678Z,30.60
2018-12-10T02:51:13.100Z,30.00
2018-12-10T02:53:48.646Z,29.80
2018-12-10T02:56:23.038Z,29.30
2018-12-10T02:58:57.231Z,29.30
2018-12-10T03:01:31.857Z,29.10
2018-12-10T03:04:06.326Z,29.10
2018-12-10T03:06:41.677Z,29.20
2018-12-10T03:09:16.141Z,29.20
2018-12-10T03:11:50.544Z,28.20
2018-12-10T03:14:24.756Z,27.50
2018-12-10T03:16:59.219Z,26.00
2018-12-10T03:19:33.559Z,25.20
2018-12-10T03:22:08.127Z,25.40
2018-12-10T03:24:42.497Z,25.10
2018-12-10T03:27:16.980Z,24.90
2018-12-10T03:29:51.325Z,24.90
2018-12-10T03:32:25.836Z,25.00
2018-12-10T03:35:00.142Z,26.00
2018-12-10T03:37:34.386Z,26.20
2018-12-10T03:40:08.777Z,25.90
2018-12-10T03:42:43.069Z,24.80
2018-12-10T03:45:17.617Z,23.00
2018-12-10T03:47:51.859Z,22.20
2018-12-10T03:50:26.244Z,22.10
2018-12-10T03:53:01.344Z,22.10
2018-12-10T03:55:35.672Z,22.10
2018-12-10T03:58:10.035Z,22.10
2018-12-10T04:00:44.365Z,22.10
2018-12-10T04:03:18.611Z,21.90
2018-12-10T04:05:52.961Z,22.60
2018-12-10T04:08:27.144Z,22.10
2018-12-10T04:11:02.751Z,21.90
2018-12-10T04:13:37.183Z,22.20
2018-12-10T04:16:11.378Z,22.10
2018-12-10T04:18:45.939Z,22.10
2018-12-10T04:21:20.391Z,22.10
2018-12-10T04:23:54.587Z,23.40
2018-12-10T04:26:29.159Z,23.90
2018-12-10T04:29:03.503Z,24.50
2018-12-10T04:31:38.002Z,24.40
2018-12-10T04:34:12.341Z,23.70
2018-12-10T04:36:46.691Z,23.50
2018-12-10T04:39:21.509Z,23.80
2018-12-10T04:41:55.892Z,24.50
2018-12-10T04:44:30.175Z,25.00
2018-12-10T04:47:04.578Z,24.70
2018-12-10T04:49:39.041Z,24.20
2018-12-10T04:52:13.472Z,23.70
2018-12-10T04:54:47.881Z,23.70
2018-12-10T04:57:22.304Z,23.30
2018-12-10T04:59:56.856Z,23.20
2018-12-10T05:02:31.280Z,22.80
2018-12-10T05:05:05.784Z,21.70
2018-12-10T05:07:40.186Z,22.10
2018-12-10T05:10:14.859Z,22.10
2018-12-10T05:12:49.226Z,23.40
2018-12-10T05:15:23.850Z,24.20
2018-12-10T05:17:58.111Z,24.50
2018-12-10T05:20:32.999Z,24.80
2018-12-10T05:23:07.328Z,24.80
2018-12-10T05:25:41.694Z,24.90
2018-12-10T05:28:19.399Z,25.20
2018-12-10T05:30:53.774Z,25.60
2018-12-10T05:33:27.967Z,26.00
2018-12-10T05:36:02.803Z,26.00
2018-12-10T05:38:37.227Z,25.60
2018-12-10T05:41:11.374Z,26.10
2018-12-10T05:43:45.652Z,26.60
2018-12-10T05:46:20.152Z,26.40
2018-12-10T05:48:54.512Z,27.40
2018-12-10T05:51:36.281Z,27.70
2018-12-10T05:54:10.551Z,27.80
2018-12-10T05:56:44.895Z,27.10
2018-12-10T05:59:19.319Z,26.70
2018-12-10T06:01:53.733Z,27.40
2018-12-10T06:04:28.200Z,28.70
2018-12-10T06:07:02.509Z,28.90
2018-12-10T06:09:36.933Z,28.80
2018-12-10T06:12:11.421Z,29.80
2018-12-10T06:14:45.635Z,29.70
2018-12-10T06:17:20.317Z,29.60
2018-12-10T06:19:56.749Z,29.70
2018-12-10T06:22:31.297Z,30.00
2018-12-10T06:25:09.864Z,30.00
2018-12-10T06:27:44.339Z,30.50
2018-12-10T06:30:19.173Z,30.80
2018-12-10T06:32:54.903Z,30.30
2018-12-10T06:35:29.400Z,29.80
2018-12-10T06:38:04.123Z,29.60
2018-12-10T06:40:38.609Z,29.60
2018-12-10T06:43:13.022Z,29.50
2018-12-10T06:45:48.236Z,28.10
2018-12-10T06:48:24.273Z,27.50
2018-12-10T06:51:03.014Z,28.50
2018-12-10T06:53:43.222Z,28.90
2018-12-10T06:56:17.794Z,28.90
2018-12-10T06:58:52.731Z,28.90
2018-12-10T07:01:27.115Z,28.80
2018-12-10T07:04:01.739Z,28.90
2018-12-10T07:06:36.148Z,28.80
2018-12-10T07:09:10.616Z,28.90
2018-12-10T07:11:45.165Z,28.80
2018-12-10T07:14:19.383Z,28.80
2018-12-10T07:16:54.601Z,28.70
2018-12-10T07:19:29.200Z,28.80
2018-12-10T07:22:03.579Z,28.80
2018-12-10T07:24:38.244Z,28.80
2018-12-10T07:27:12.629Z,29.20
2018-12-10T07:29:47.043Z,28.80
2018-12-10T07:32:21.708Z,28.80
2018-12-10T07:34:58.066Z,28.20
2018-12-10T07:37:32.604Z,28.20
2018-12-10T07:40:07.006Z,28.80
2018-12-10T07:42:43.148Z,28.00
2018-12-10T07:45:17.867Z,28.80
2018-12-10T07:47:52.107Z,28.80
2018-12-10T07:50:26.505Z,28.80
2018-12-10T07:53:00.793Z,29.40
2018-12-10T07:55:36.256Z,29.00
2018-12-10T07:58:10.713Z,29.80
2018-12-10T08:00:45.252Z,28.80
2018-12-10T08:03:19.707Z,28.80
2018-12-10T08:05:54.804Z,28.10
2018-12-10T08:08:29.869Z,27.50
2018-12-10T08:11:04.240Z,27.40
2018-12-10T08:13:39.914Z,27.40
2018-12-10T08:16:21.470Z,27.80
2018-12-10T08:18:55.834Z,28.00
2018-12-10T08:21:31.173Z,27.90
2018-12-10T08:24:05.788Z,28.80
2018-12-10T08:26:40.083Z,28.80
2018-12-10T08:29:28.642Z,28.80
2018-12-10T08:32:02.875Z,27.90
2018-12-10T08:37:24.023Z,27.10
2018-12-10T08:39:58.335Z,27.40
2018-12-10T08:42:32.764Z,26.90
2018-12-10T08:45:07.905Z,25.20
2018-12-10T08:47:43.009Z,25.30
2018-12-10T08:50:17.343Z,24.10
2018-12-10T08:52:52.465Z,22.70
2018-12-10T08:55:26.998Z,22.10
2018-12-10T08:58:03.743Z,22.10
2018-12-10T09:00:38.116Z,21.10
2018-12-10T09:03:12.415Z,20.10
2018-12-10T09:05:46.920Z,19.10
2018-12-10T09:08:21.893Z,19.20
2018-12-10T09:10:56.304Z,17.20
2018-12-10T09:13:31.303Z,17.10
2018-12-10T09:16:05.707Z,16.50
2018-12-10T09:18:40.526Z,17.10
2018-12-10T09:21:14.957Z,16.70
2018-12-10T09:23:49.312Z,17.50
2018-12-10T09:26:23.720Z,17.50
2018-12-10T09:28:58.143Z,17.70
2018-12-10T09:31:32.498Z,17.20
2018-12-10T09:34:06.780Z,15.30
2018-12-10T09:36:42.259Z,15.50
2018-12-10T09:39:17.175Z,14.60
2018-12-10T09:41:54.963Z,13.60
2018-12-10T09:44:29.635Z,11.50
2018-12-10T09:47:04.558Z,9.60
2018-12-10T09:49:38.998Z,10.00
2018-12-10T09:52:13.251Z,9.20
2018-12-10T09:54:47.694Z,9.70
2018-12-10T09:57:24.752Z,9.90
2018-12-10T09:59:59.268Z,11.10
2018-12-10T10:02:34.307Z,13.00
2018-12-10T10:05:08.861Z,15.40
2018-12-10T10:07:43.155Z,23.20
2018-12-10T10:10:17.605Z,27.50
2018-12-10T10:12:53.670Z,29.30
2018-12-10T10:15:28.201Z,31.50
2018-12-10T10:18:03.541Z,33.40
2018-12-10T10:20:38.019Z,30.30
2018-12-10T10:23:12.456Z,31.90
2018-12-10T10:25:46.923Z,32.00
2018-12-10T10:28:21.571Z,32.70
2018-12-10T10:30:56.011Z,34.40
2018-12-10T10:33:32.453Z,34.10
2018-12-10T10:36:08.663Z,33.70
2018-12-10T10:38:43.081Z,31.80
2018-12-10T10:41:17.297Z,30.10
2018-12-10T10:43:51.831Z,28.60
2018-12-10T10:46:26.475Z,24.30
2018-12-10T10:49:00.976Z,18.10
2018-12-10T10:51:35.559Z,18.60
2018-12-10T10:54:09.918Z,17.00
2018-12-10T10:56:44.459Z,17.80
2018-12-10T10:59:18.836Z,17.60
2018-12-10T11:01:59.180Z,17.30
2018-12-10T11:04:37.648Z,18.20
2018-12-10T11:07:10.151Z,19.00
2018-12-10T11:09:45.654Z,16.20
2018-12-10T11:12:20.916Z,17.70
2018-12-10T11:14:55.794Z,16.10
2018-12-10T11:17:31.984Z,15.60
2018-12-10T11:20:07.511Z,15.30
2018-12-10T11:22:42.641Z,16.00
2018-12-10T11:25:17.138Z,14.30
2018-12-10T11:27:51.712Z,14.40
2018-12-10T11:30:27.139Z,15.20
2018-12-10T11:33:01.420Z,13.20
2018-12-10T11:35:35.993Z,13.60
2018-12-10T11:38:10.439Z,12.60
2018-12-10T11:40:45.407Z,13.60
2018-12-10T11:43:20.891Z,15.30
2018-12-10T11:45:58.171Z,13.40
2018-12-10T11:48:35.298Z,12.20
2018-12-10T11:51:14.061Z,12.90
2018-12-10T11:53:48.810Z,15.40
2018-12-10T11:56:23.427Z,15.40
2018-12-10T11:58:57.904Z,16.40
2018-12-10T12:01:33.467Z,17.00
2018-12-10T12:04:07.976Z,18.90
2018-12-10T12:06:44.579Z,18.90
2018-12-10T12:09:19.014Z,15.00
2018-12-10T12:11:53.454Z,13.10
2018-12-10T12:14:28.193Z,12.80
2018-12-10T12:17:02.789Z,11.40
2018-12-10T12:19:37.858Z,12.90
2018-12-10T12:22:12.407Z,12.90
2018-12-10T12:24:47.053Z,12.50
2018-12-10T12:27:21.364Z,11.50
2018-12-10T12:29:56.632Z,10.40
2018-12-10T12:32:32.303Z,11.30
2018-12-10T12:35:08.068Z,11.20
2018-12-10T12:37:42.633Z,8.60
2018-12-10T12:40:17.058Z,8.40
2018-12-10T12:42:51.462Z,10.50
2018-12-10T12:45:26.619Z,9.70
2018-12-10T12:48:02.806Z,9.10
2018-12-10T12:50:37.430Z,6.70
2018-12-10T12:53:12.199Z,12.70
2018-12-10T12:55:47.109Z,16.40
2018-12-10T12:58:21.603Z,22.70
2018-12-10T13:00:59.792Z,17.40
2018-12-10T13:03:45.215Z,13.20
2018-12-10T13:06:27.729Z,12.90
2018-12-10T13:09:02.715Z,9.70
2018-12-10T13:11:39.070Z,8.20
2018-12-10T13:17:23.683Z,3.30
2018-12-10T13:20:05.729Z,1.00
2018-12-10T13:25:37.397Z,8.80
2018-12-10T13:28:24.686Z,13.10
2018-12-10T13:31:03.610Z,15.50
2018-12-10T13:33:46.135Z,17.60
2018-12-10T13:36:30.119Z,19.40
2018-12-10T13:41:55.850Z,17.90
2018-12-10T13:44:30.347Z,15.40
2018-12-10T13:47:06.339Z,17.50
2018-12-10T13:49:41.767Z,17.20
2018-12-10T13:52:16.177Z,15.50
2018-12-10T13:54:52.023Z,12.10
2018-12-10T13:57:28.203Z,11.70
2018-12-10T14:00:02.899Z,8.10
2018-12-10T14:02:37.361Z,8.00
2018-12-10T14:05:14.090Z,6.90
2018-12-10T14:07:48.507Z,8.10
2018-12-10T14:10:23.021Z,9.60
2018-12-10T14:12:57.407Z,10.70
2018-12-10T14:15:32.233Z,11.80
2018-12-10T14:18:06.874Z,16.90
2018-12-10T14:20:42.105Z,19.00
2018-12-10T14:23:17.229Z,19.90
2018-12-10T14:25:51.816Z,18.80
2018-12-10T14:28:27.540Z,17.80
2018-12-10T14:31:03.241Z,17.60
2018-12-10T14:33:42.348Z,15.10
2018-12-10T14:36:19.323Z,14.10
2018-12-10T14:38:53.747Z,13.30
2018-12-10T14:41:28.761Z,14.00
2018-12-10T14:44:03.272Z,12.60
2018-12-10T14:46:40.189Z,13.00
2018-12-10T14:49:15.876Z,12.30
2018-12-10T14:51:51.126Z,12.80
2018-12-10T14:54:25.775Z,13.40
2018-12-10T14:57:00.906Z,14.70
2018-12-10T14:59:35.737Z,15.30
2018-12-10T15:02:10.347Z,14.30
2018-12-10T15:04:48.427Z,15.30
2018-12-10T15:07:22.818Z,15.30
2018-12-10T15:09:58.295Z,15.30
2018-12-10T15:12:32.756Z,13.90
2018-12-10T15:15:08.950Z,13.70
2018-12-10T15:17:43.372Z,14.60
2018-12-10T15:20:19.072Z,15.30
2018-12-10T15:22:54.347Z,14.20
2018-12-10T15:25:29.264Z,15.10
2018-12-10T15:28:03.699Z,14.90
2018-12-10T15:30:39.944Z,13.40
2018-12-10T15:33:15.311Z,13.60
2018-12-10T15:35:51.360Z,14.00
2018-12-10T15:38:32.425Z,13.20
2018-12-10T15:41:08.187Z,15.30
2018-12-10T15:43:43.763Z,16.30
2018-12-10T15:46:21.217Z,18.00
2018-12-10T15:48:56.395Z,17.70
2018-12-10T15:51:32.580Z,18.10
2018-12-10T15:54:12.289Z,17.10
2018-12-10T15:56:49.435Z,19.10
2018-12-10T15:59:24.432Z,20.40
2018-12-10T16:01:59.400Z,21.10
2018-12-10T16:04:34.997Z,20.80
2018-12-10T16:07:10.751Z,20.10
2018-12-10T16:09:49.763Z,19.80
2018-12-10T16:12:24.132Z,20.80
2018-12-10T16:15:00.223Z,21.70
2018-12-10T16:17:37.730Z,24.10
2018-12-10T16:20:14.062Z,26.10
2018-12-10T16:22:49.535Z,26.60
2018-12-10T16:25:24.468Z,28.00
2018-12-10T16:27:59.573Z,29.30
2018-12-10T16:30:44.159Z,32.00
2018-12-10T16:33:18.472Z,35.80
2018-12-10T16:35:53.962Z,38.40
2018-12-10T16:38:28.768Z,39.40
2018-12-10T16:41:03.366Z,39.80
2018-12-10T16:43:37.922Z,39.20
2018-12-10T16:46:12.162Z,36.50
2018-12-10T16:48:46.839Z,36.30
2018-12-10T16:51:21.156Z,38.30
2018-12-10T16:53:57.114Z,37.60
2018-12-10T16:56:33.982Z,36.70
2018-12-10T16:59:08.731Z,35.30
2018-12-10T17:01:44.489Z,35.70
2018-12-10T17:04:19.123Z,35.50
2018-12-10T17:06:54.397Z,36.80
2018-12-10T17:09:29.210Z,37.50
2018-12-10T17:12:03.837Z,37.40
2018-12-10T17:14:38.272Z,37.00
2018-12-10T17:17:13.564Z,37.40
2018-12-10T17:19:50.695Z,36.60
2018-12-10T17:22:25.126Z,36.60
2018-12-10T17:24:59.681Z,35.80
2018-12-10T17:27:33.916Z,35.50
2018-12-10T17:30:08.587Z,35.40
2018-12-10T17:32:43.015Z,35.10
2018-12-10T17:35:17.504Z,35.10
2018-12-10T17:37:51.691Z,34.80
2018-12-10T17:40:26.019Z,35.50
2018-12-10T17:43:00.492Z,37.70
2018-12-10T17:45:35.418Z,37.70
2018-12-10T17:48:09.872Z,37.60
2018-12-10T17:50:44.081Z,38.30
2018-12-10T17:53:18.612Z,38.00
2018-12-10T17:55:53.045Z,38.60
2018-12-10T17:58:27.565Z,37.60
2018-12-10T18:01:02.040Z,37.60
2018-12-10T18:03:36.394Z,37.60
2018-12-10T18:06:10.858Z,37.60
2018-12-10T18:08:46.789Z,37.00
2018-12-10T18:11:21.257Z,38.40
2018-12-10T18:13:56.369Z,38.60
2018-12-10T18:16:30.841Z,38.60
2018-12-10T18:19:06.369Z,37.60
2018-12-10T18:21:43.505Z,37.50
2018-12-10T18:24:17.956Z,36.20
2018-12-10T18:26:52.818Z,36.50
2018-12-10T18:29:29.682Z,36.00
2018-12-10T18:32:04.219Z,39.20
2018-12-10T18:34:38.649Z,39.40
2018-12-10T18:37:13.339Z,39.50
2018-12-10T18:39:54.421Z,40.60
2018-12-10T18:42:28.902Z,41.60
2018-12-10T18:45:03.972Z,42.40
2018-12-10T18:47:38.530Z,43.80
2018-12-10T18:50:13.376Z,44.90
2018-12-10T18:52:50.104Z,44.70
2018-12-10T18:55:24.546Z,45.60
2018-12-10T18:57:59.636Z,45.90
2018-12-10T19:00:34.265Z,46.00
2018-12-10T19:03:09.852Z,45.50
2018-12-10T19:05:44.102Z,45.30
2018-12-10T19:08:18.308Z,44.90
2018-12-10T19:10:53.612Z,45.50
2018-12-10T19:13:28.979Z,43.90
2018-12-10T19:16:04.035Z,45.10
2018-12-10T19:18:39.389Z,44.40
2018-12-10T19:21:13.926Z,43.60
2018-12-10T19:23:49.023Z,43.50
2018-12-10T19:26:23.305Z,43.10
2018-12-10T19:28:57.689Z,41.10
2018-12-10T19:31:47.223Z,41.50
2018-12-10T19:34:21.776Z,41.60
2018-12-10T19:36:57.310Z,41.00
2018-12-10T19:39:31.938Z,41.40
2018-12-10T19:42:06.650Z,41.00
2018-12-10T19:44:41.184Z,41.30
2018-12-10T19:47:15.519Z,41.60
2018-12-10T19:49:51.071Z,41.00
2018-12-10T19:52:26.555Z,42.40
2018-12-10T19:55:01.589Z,43.60
2018-12-10T19:57:36.011Z,43.90
2018-12-10T20:00:10.994Z,44.70
2018-12-10T20:02:45.753Z,44.40
2018-12-10T20:05:28.730Z,44.40
2018-12-10T20:08:04.722Z,42.10
2018-12-10T20:10:44.840Z,42.30
2018-12-10T20:13:23.950Z,43.00
2018-12-10T20:15:59.082Z,42.50
2018-12-10T20:18:33.803Z,43.70
2018-12-10T20:21:08.041Z,44.10
2018-12-10T20:23:45.923Z,44.80
2018-12-10T20:26:21.684Z,44.80
2018-12-10T20:28:56.183Z,45.70
2018-12-10T20:31:31.562Z,45.00
2018-12-10T20:34:08.985Z,45.20
2018-12-10T20:36:43.639Z,44.00
2018-12-10T20:39:18.016Z,44.10
2018-12-10T20:41:52.421Z,44.40
2018-12-10T20:44:32.548Z,44.10
2018-12-10T20:47:08.335Z,45.80
2018-12-10T20:49:43.140Z,46.30
2018-12-10T20:52:18.921Z,46.50
2018-12-10T20:54:53.417Z,47.00
2018-12-10T20:57:28.038Z,46.10
2018-12-10T21:00:16.639Z,46.80
2018-12-10T21:02:55.368Z,46.70
2018-12-10T21:05:29.807Z,46.30
2018-12-10T21:08:26.851Z,46.30
2018-12-10T21:11:07.164Z,47.10
2018-12-10T21:13:49.162Z,47.50
2018-12-10T21:19:11.787Z,47.70
2018-12-10T21:21:49.241Z,46.70
2018-12-10T21:24:29.261Z,47.50
2018-12-10T21:27:04.906Z,47.30
2018-12-10T21:29:39.255Z,47.60
2018-12-10T21:32:14.490Z,46.90
2018-12-10T21:34:50.503Z,46.00
2018-12-10T21:37:28.167Z,46.50
2018-12-10T21:40:10.123Z,47.00
2018-12-10T21:42:45.720Z,47.30
2018-12-10T21:45:20.782Z,47.50
2018-12-10T21:47:55.681Z,47.80
2018-12-10T21:50:30.800Z,47.90
2018-12-10T21:53:06.194Z,48.20
2018-12-10T21:55:40.782Z,48.10
2018-12-10T21:58:15.388Z,48.40
2018-12-10T22:00:49.714Z,48.60
2018-12-10T22:03:24.207Z,48.60
2018-12-10T22:05:59.221Z,48.60
2018-12-10T22:08:34.264Z,48.50
2018-12-10T22:11:10.667Z,48.00
2018-12-10T22:13:46.516Z,48.40
2018-12-10T22:16:21.236Z,48.80
2018-12-10T22:19:00.173Z,48.80
2018-12-10T22:21:35.930Z,48.80
2018-12-10T22:24:11.007Z,48.40
2018-12-10T22:26:46.447Z,48.30
2018-12-10T22:29:26.000Z,47.70
2018-12-10T22:32:00.285Z,47.90
2018-12-10T22:34:34.467Z,47.70
2018-12-10T22:37:10.035Z,47.10
2018-12-10T22:39:44.332Z,46.00
2018-12-10T22:42:18.466Z,46.70
2018-12-10T22:44:53.728Z,44.80
2018-12-10T22:47:29.843Z,44.40
2018-12-10T22:50:05.447Z,44.40
2018-12-10T22:52:45.418Z,44.60
2018-12-10T22:55:31.139Z,44.80
2018-12-10T22:58:05.996Z,43.90
2018-12-10T23:00:42.107Z,43.50
2018-12-10T23:03:18.483Z,43.20
2018-12-10T23:05:54.291Z,41.80
2018-12-10T23:08:30.000Z,40.90
2018-12-10T23:11:05.253Z,41.70
2018-12-10T23:13:40.253Z,42.40
2018-12-10T23:16:14.908Z,41.60
2018-12-10T23:18:49.386Z,41.80
2018-12-10T23:21:25.065Z,42.10
2018-12-10T23:24:04.323Z,42.60
2018-12-10T23:26:40.778Z,43.20
2018-12-10T23:29:16.752Z,44.10
2018-12-10T23:31:54.847Z,43.10
2018-12-10T23:34:30.567Z,44.00
2018-12-10T23:37:05.713Z,43.00
2018-12-10T23:39:40.839Z,42.90
2018-12-10T23:42:16.640Z,43.00
2018-12-10T23:44:56.071Z,42.60
2018-12-10T23:47:34.854Z,42.70
2018-12-10T23:50:09.574Z,41.70
2018-12-10T23:52:44.102Z,40.90
2018-12-10T23:55:19.179Z,40.80
2018-12-10T23:57:53.725Z,40.20
